sensor_id;sensor_type;location;lat;lon;timestamp;pressure;altitude;pressure_sealevel;temperature;humidity
3844;BME280;1937;51.444;6.484;2022-12-07T00:01:45;76711.22;;;4.90;100.00
3844;BME280;1937;51.444;6.484;2022-12-07T00:04:16;76804.97;;;5.00;100.00
3844;BME280;1937;51.444;6.484;2022-12-07T00:06:50;76804.47;;;5.03;100.00
3844;BME280;1937;51.444;6.484;2022-12-07T00:09:20;76977.00;;;5.14;100.00
3844;BME280;1937;51.444;6.484;2022-12-07T00:11:50;76835.44;;;5.23;100.00
3844;BME280;1937;51.444;6.484;2022-12-07T00:14:20;76547.66;;;5.08;100.00
3844;BME280;1937;51.444;6.484;2022-12-07T00:16:53;76748.66;;;5.13;100.00
3844;BME280;1937;51.444;6.484;2022-12-07T00:19:21;76588.91;;;5.01;100.00
3844;BME280;1937;51.444;6.484;2022-12-07T00:21:49;76470.53;;;4.98;100.00
3844;BME280;1937;51.444;6.484;2022-12-07T00:24:17;76462.50;;;4.90;100.00
3844;BME280;1937;51.444;6.484;2022-12-07T00:26:47;76593.28;;;4.98;100.00
3844;BME280;1937;51.444;6.484;2022-12-07T00:29:18;76705.00;;;5.09;100.00
3844;BME280;1937;51.444;6.484;2022-12-07T00:31:47;76445.19;;;5.04;100.00
3844;BME280;1937;51.444;6.484;2022-12-07T00:34:19;76364.78;;;4.91;100.00
3844;BME280;1937;51.444;6.484;2022-12-07T00:36:48;76449.09;;;4.74;100.00
3844;BME280;1937;51.444;6.484;2022-12-07T00:39:17;76850.81;;;4.95;100.00
3844;BME280;1937;51.444;6.484;2022-12-07T00:41:45;76636.38;;;4.90;100.00
3844;BME280;1937;51.444;6.484;2022-12-07T00:44:13;76516.41;;;4.94;100.00
3844;BME280;1937;51.444;6.484;2022-12-07T00:46:41;76546.56;;;4.98;100.00
3844;BME280;1937;51.444;6.484;2022-12-07T00:49:11;76292.66;;;4.95;100.00
3844;BME280;1937;51.444;6.484;2022-12-07T00:51:40;76215.69;;;4.87;100.00
3844;BME280;1937;51.444;6.484;2022-12-07T00:54:08;76394.81;;;4.91;100.00
3844;BME280;1937;51.444;6.484;2022-12-07T00:56:37;76642.53;;;5.14;100.00
3844;BME280;1937;51.444;6.484;2022-12-07T00:59:06;76321.19;;;5.05;100.00
3844;BME280;1937;51.444;6.484;2022-12-07T01:01:36;76295.84;;;5.11;100.00
3844;BME280;1937;51.444;6.484;2022-12-07T01:04:06;75758.84;;;4.91;100.00
3844;BME280;1937;51.444;6.484;2022-12-07T01:06:34;75720.81;;;4.80;100.00
3844;BME280;1937;51.444;6.484;2022-12-07T01:09:04;76234.09;;;5.01;100.00
3844;BME280;1937;51.444;6.484;2022-12-07T01:11:33;76034.81;;;5.07;100.00
3844;BME280;1937;51.444;6.484;2022-12-07T01:14:02;75738.09;;;5.03;100.00
3844;BME280;1937;51.444;6.484;2022-12-07T01:16:32;75444.56;;;4.98;100.00
3844;BME280;1937;51.444;6.484;2022-12-07T01:19:01;74967.41;;;4.70;100.00
3844;BME280;1937;51.444;6.484;2022-12-07T01:21:33;75346.94;;;4.75;100.00
3844;BME280;1937;51.444;6.484;2022-12-07T01:24:09;75251.69;;;4.73;100.00
3844;BME280;1937;51.444;6.484;2022-12-07T01:26:39;75278.34;;;4.64;100.00
3844;BME280;1937;51.444;6.484;2022-12-07T01:29:08;75215.78;;;4.67;100.00
3844;BME280;1937;51.444;6.484;2022-12-07T01:31:37;74982.38;;;4.50;100.00
3844;BME280;1937;51.444;6.484;2022-12-07T01:34:09;75034.66;;;4.45;100.00
3844;BME280;1937;51.444;6.484;2022-12-07T01:36:39;75237.75;;;4.48;100.00
3844;BME280;1937;51.444;6.484;2022-12-07T01:39:09;75500.56;;;4.62;100.00
3844;BME280;1937;51.444;6.484;2022-12-07T01:41:39;75125.34;;;4.46;100.00
3844;BME280;1937;51.444;6.484;2022-12-07T01:44:20;75040.84;;;4.34;100.00
3844;BME280;1937;51.444;6.484;2022-12-07T01:46:50;75093.63;;;4.23;100.00
3844;BME280;1937;51.444;6.484;2022-12-07T01:49:23;75399.09;;;4.38;100.00
3844;BME280;1937;51.444;6.484;2022-12-07T01:51:55;75320.94;;;4.27;100.00
3844;BME280;1937;51.444;6.484;2022-12-07T01:54:27;75262.16;;;4.25;100.00
3844;BME280;1937;51.444;6.484;2022-12-07T01:56:57;75453.06;;;4.27;100.00
3844;BME280;1937;51.444;6.484;2022-12-07T01:59:26;75629.03;;;4.40;100.00
3844;BME280;1937;51.444;6.484;2022-12-07T02:01:56;75427.09;;;4.34;100.00
3844;BME280;1937;51.444;6.484;2022-12-07T02:04:25;75568.16;;;4.33;100.00
3844;BME280;1937;51.444;6.484;2022-12-07T02:06:56;75863.47;;;4.64;100.00
3844;BME280;1937;51.444;6.484;2022-12-07T02:09:26;75220.25;;;4.34;100.00
3844;BME280;1937;51.444;6.484;2022-12-07T02:11:56;75287.31;;;4.37;100.00
3844;BME280;1937;51.444;6.484;2022-12-07T02:14:25;75327.34;;;4.28;100.00
3844;BME280;1937;51.444;6.484;2022-12-07T02:17:01;75670.06;;;4.46;100.00
3844;BME280;1937;51.444;6.484;2022-12-07T02:19:51;75396.78;;;4.48;100.00
3844;BME280;1937;51.444;6.484;2022-12-07T02:22:51;75240.97;;;4.48;100.00
3844;BME280;1937;51.444;6.484;2022-12-07T02:25:33;74964.19;;;4.32;100.00
3844;BME280;1937;51.444;6.484;2022-12-07T02:28:11;75195.50;;;4.43;100.00
3844;BME280;1937;51.444;6.484;2022-12-07T02:30:44;74938.00;;;4.31;100.00
3844;BME280;1937;51.444;6.484;2022-12-07T02:33:18;75198.59;;;4.37;100.00
3844;BME280;1937;51.444;6.484;2022-12-07T02:35:53;75041.56;;;4.38;100.00
3844;BME280;1937;51.444;6.484;2022-12-07T02:38:28;74742.66;;;4.30;100.00
3844;BME280;1937;51.444;6.484;2022-12-07T02:41:02;74685.25;;;4.31;100.00
3844;BME280;1937;51.444;6.484;2022-12-07T02:43:35;74634.09;;;4.25;100.00
3844;BME280;1937;51.444;6.484;2022-12-07T02:46:11;74421.44;;;4.08;100.00
3844;BME280;1937;51.444;6.484;2022-12-07T02:48:41;74314.78;;;3.95;100.00
3844;BME280;1937;51.444;6.484;2022-12-07T02:51:11;74486.31;;;3.89;100.00
3844;BME280;1937;51.444;6.484;2022-12-07T02:53:41;74783.03;;;3.96;100.00
3844;BME280;1937;51.444;6.484;2022-12-07T02:56:16;74641.22;;;3.81;100.00
3844;BME280;1937;51.444;6.484;2022-12-07T02:58:54;74643.78;;;3.83;100.00
3844;BME280;1937;51.444;6.484;2022-12-07T03:01:33;74716.41;;;3.78;100.00
3844;BME280;1937;51.444;6.484;2022-12-07T03:04:12;74848.50;;;3.83;100.00
3844;BME280;1937;51.444;6.484;2022-12-07T03:06:48;75008.81;;;3.95;100.00
3844;BME280;1937;51.444;6.484;2022-12-07T03:09:24;74939.22;;;3.90;100.00
3844;BME280;1937;51.444;6.484;2022-12-07T03:12:10;74907.34;;;3.91;100.00
3844;BME280;1937;51.444;6.484;2022-12-07T03:14:45;74680.59;;;3.71;100.00
3844;BME280;1937;51.444;6.484;2022-12-07T03:17:19;74579.22;;;3.72;100.00
3844;BME280;1937;51.444;6.484;2022-12-07T03:19:52;74600.28;;;3.70;100.00
3844;BME280;1937;51.444;6.484;2022-12-07T03:22:23;74705.50;;;3.71;100.00
3844;BME280;1937;51.444;6.484;2022-12-07T03:25:00;74497.47;;;3.60;100.00
3844;BME280;1937;51.444;6.484;2022-12-07T03:27:34;74556.72;;;3.56;100.00
3844;BME280;1937;51.444;6.484;2022-12-07T03:30:06;74702.19;;;3.64;100.00
3844;BME280;1937;51.444;6.484;2022-12-07T03:32:40;74752.56;;;3.66;100.00
3844;BME280;1937;51.444;6.484;2022-12-07T03:35:14;74571.38;;;3.56;100.00
3844;BME280;1937;51.444;6.484;2022-12-07T03:37:49;74730.19;;;3.60;100.00
3844;BME280;1937;51.444;6.484;2022-12-07T03:40:24;74580.75;;;3.43;100.00
3844;BME280;1937;51.444;6.484;2022-12-07T03:42:55;74745.19;;;3.42;100.00
3844;BME280;1937;51.444;6.484;2022-12-07T03:45:37;74970.28;;;3.47;100.00
3844;BME280;1937;51.444;6.484;2022-12-07T03:48:11;74905.69;;;3.36;100.00
3844;BME280;1937;51.444;6.484;2022-12-07T03:50:50;74987.72;;;3.26;100.00
3844;BME280;1937;51.444;6.484;2022-12-07T03:53:24;75306.19;;;3.44;100.00
3844;BME280;1937;51.444;6.484;2022-12-07T03:55:58;75077.41;;;3.49;100.00
3844;BME280;1937;51.444;6.484;2022-12-07T03:58:31;75386.25;;;3.59;100.00
3844;BME280;1937;51.444;6.484;2022-12-07T04:01:00;74970.41;;;3.53;100.00
3844;BME280;1937;51.444;6.484;2022-12-07T04:03:30;75346.50;;;3.76;100.00
3844;BME280;1937;51.444;6.484;2022-12-07T04:05:58;75092.94;;;3.59;100.00
3844;BME280;1937;51.444;6.484;2022-12-07T04:08:27;75204.69;;;3.66;100.00
3844;BME280;1937;51.444;6.484;2022-12-07T04:10:55;75062.28;;;3.57;100.00
3844;BME280;1937;51.444;6.484;2022-12-07T04:13:24;75245.50;;;3.66;100.00
3844;BME280;1937;51.444;6.484;2022-12-07T04:15:52;74984.44;;;3.54;100.00
3844;BME280;1937;51.444;6.484;2022-12-07T04:18:21;75147.78;;;3.60;100.00
3844;BME280;1937;51.444;6.484;2022-12-07T04:20:51;75207.72;;;3.59;100.00
3844;BME280;1937;51.444;6.484;2022-12-07T04:23:19;75098.50;;;3.51;100.00
3844;BME280;1937;51.444;6.484;2022-12-07T04:25:50;75084.97;;;3.45;100.00
3844;BME280;1937;51.444;6.484;2022-12-07T04:28:18;75304.53;;;3.55;100.00
3844;BME280;1937;51.444;6.484;2022-12-07T04:30:47;74993.31;;;3.51;100.00
3844;BME280;1937;51.444;6.484;2022-12-07T04:33:15;74901.63;;;3.57;100.00
3844;BME280;1937;51.444;6.484;2022-12-07T04:35:44;74474.25;;;3.38;100.00
3844;BME280;1937;51.444;6.484;2022-12-07T04:38:14;74606.25;;;3.41;100.00
3844;BME280;1937;51.444;6.484;2022-12-07T04:40:42;74910.56;;;3.58;100.00
3844;BME280;1937;51.444;6.484;2022-12-07T04:43:11;74560.41;;;3.45;100.00
3844;BME280;1937;51.444;6.484;2022-12-07T04:45:39;74820.72;;;3.61;100.00
3844;BME280;1937;51.444;6.484;2022-12-07T04:48:07;74623.09;;;3.62;100.00
3844;BME280;1937;51.444;6.484;2022-12-07T04:50:36;74606.72;;;3.78;100.00
3844;BME280;1937;51.444;6.484;2022-12-07T04:53:06;74354.78;;;3.70;100.00
3844;BME280;1937;51.444;6.484;2022-12-07T04:55:35;74247.03;;;3.71;100.00
3844;BME280;1937;51.444;6.484;2022-12-07T04:58:04;74102.84;;;3.50;100.00
3844;BME280;1937;51.444;6.484;2022-12-07T05:00:32;74248.22;;;3.60;100.00
3844;BME280;1937;51.444;6.484;2022-12-07T05:03:01;74283.94;;;3.62;100.00
3844;BME280;1937;51.444;6.484;2022-12-07T05:05:29;74493.81;;;3.73;100.00
3844;BME280;1937;51.444;6.484;2022-12-07T05:07:57;74389.16;;;3.67;100.00
3844;BME280;1937;51.444;6.484;2022-12-07T05:10:26;74598.28;;;3.65;100.00
3844;BME280;1937;51.444;6.484;2022-12-07T05:12:55;74349.00;;;3.67;100.00
3844;BME280;1937;51.444;6.484;2022-12-07T05:15:24;74424.97;;;3.75;100.00
3844;BME280;1937;51.444;6.484;2022-12-07T05:17:52;74219.53;;;3.60;100.00
3844;BME280;1937;51.444;6.484;2022-12-07T05:20:20;74284.56;;;3.59;100.00
3844;BME280;1937;51.444;6.484;2022-12-07T05:22:49;74517.47;;;3.80;100.00
3844;BME280;1937;51.444;6.484;2022-12-07T05:25:18;74370.22;;;3.86;100.00
3844;BME280;1937;51.444;6.484;2022-12-07T05:27:46;74393.22;;;3.90;100.00
3844;BME280;1937;51.444;6.484;2022-12-07T05:30:18;74055.16;;;3.79;100.00
3844;BME280;1937;51.444;6.484;2022-12-07T05:32:46;74162.94;;;3.86;100.00
3844;BME280;1937;51.444;6.484;2022-12-07T05:35:14;74157.28;;;3.99;100.00
3844;BME280;1937;51.444;6.484;2022-12-07T05:37:43;73724.25;;;3.88;100.00
3844;BME280;1937;51.444;6.484;2022-12-07T05:40:13;73733.16;;;3.93;100.00
3844;BME280;1937;51.444;6.484;2022-12-07T05:42:42;73744.63;;;3.96;100.00
3844;BME280;1937;51.444;6.484;2022-12-07T05:45:12;73654.09;;;3.93;100.00
3844;BME280;1937;51.444;6.484;2022-12-07T05:47:41;73566.06;;;4.00;100.00
3844;BME280;1937;51.444;6.484;2022-12-07T05:50:11;73523.28;;;4.04;100.00
3844;BME280;1937;51.444;6.484;2022-12-07T05:52:39;73524.47;;;4.22;100.00
3844;BME280;1937;51.444;6.484;2022-12-07T05:55:09;73017.03;;;3.97;100.00
3844;BME280;1937;51.444;6.484;2022-12-07T05:57:37;73070.41;;;4.11;100.00
3844;BME280;1937;51.444;6.484;2022-12-07T06:00:06;72921.44;;;3.94;100.00
3844;BME280;1937;51.444;6.484;2022-12-07T06:02:36;73068.59;;;4.02;100.00
3844;BME280;1937;51.444;6.484;2022-12-07T06:05:08;73034.19;;;4.01;100.00
3844;BME280;1937;51.444;6.484;2022-12-07T06:07:36;73031.13;;;3.92;100.00
3844;BME280;1937;51.444;6.484;2022-12-07T06:10:06;72830.78;;;3.60;100.00
3844;BME280;1937;51.444;6.484;2022-12-07T06:12:34;73149.19;;;3.83;100.00
3844;BME280;1937;51.444;6.484;2022-12-07T06:15:07;73305.38;;;3.81;100.00
3844;BME280;1937;51.444;6.484;2022-12-07T06:17:37;73244.78;;;3.84;100.00
3844;BME280;1937;51.444;6.484;2022-12-07T06:20:09;73353.16;;;3.87;100.00
3844;BME280;1937;51.444;6.484;2022-12-07T06:22:37;73244.88;;;3.76;100.00
3844;BME280;1937;51.444;6.484;2022-12-07T06:25:07;73297.75;;;3.77;100.00
3844;BME280;1937;51.444;6.484;2022-12-07T06:27:35;73284.44;;;3.70;100.00
3844;BME280;1937;51.444;6.484;2022-12-07T06:30:04;73438.63;;;3.82;100.00
3844;BME280;1937;51.444;6.484;2022-12-07T06:32:35;73360.88;;;3.77;100.00
3844;BME280;1937;51.444;6.484;2022-12-07T06:35:04;73206.06;;;3.67;100.00
3844;BME280;1937;51.444;6.484;2022-12-07T06:37:34;73197.91;;;3.54;100.00
3844;BME280;1937;51.444;6.484;2022-12-07T06:40:02;73301.78;;;3.52;100.00
3844;BME280;1937;51.444;6.484;2022-12-07T06:42:31;73313.34;;;3.41;100.00
3844;BME280;1937;51.444;6.484;2022-12-07T06:45:01;73599.34;;;3.55;100.00
3844;BME280;1937;51.444;6.484;2022-12-07T06:47:30;73543.31;;;3.43;100.00
3844;BME280;1937;51.444;6.484;2022-12-07T06:49:58;73629.28;;;3.61;100.00
3844;BME280;1937;51.444;6.484;2022-12-07T06:52:26;73313.34;;;3.41;100.00
3844;BME280;1937;51.444;6.484;2022-12-07T06:54:56;73368.16;;;3.36;100.00
3844;BME280;1937;51.444;6.484;2022-12-07T06:57:25;73336.34;;;3.30;100.00
3844;BME280;1937;51.444;6.484;2022-12-07T06:59:53;73251.59;;;3.32;100.00
3844;BME280;1937;51.444;6.484;2022-12-07T07:02:22;73200.09;;;3.23;100.00
3844;BME280;1937;51.444;6.484;2022-12-07T07:04:50;73402.63;;;3.18;100.00
3844;BME280;1937;51.444;6.484;2022-12-07T07:07:19;73507.09;;;3.12;100.00
3844;BME280;1937;51.444;6.484;2022-12-07T07:09:47;73659.97;;;3.16;100.00
3844;BME280;1937;51.444;6.484;2022-12-07T07:12:17;73805.81;;;3.23;100.00
3844;BME280;1937;51.444;6.484;2022-12-07T07:14:45;73625.56;;;3.09;100.00
3844;BME280;1937;51.444;6.484;2022-12-07T07:17:14;73716.63;;;3.01;100.00
3844;BME280;1937;51.444;6.484;2022-12-07T07:19:42;73439.09;;;2.84;100.00
3844;BME280;1937;51.444;6.484;2022-12-07T07:22:10;73717.91;;;3.00;100.00
3844;BME280;1937;51.444;6.484;2022-12-07T07:24:39;73891.09;;;3.02;100.00
3844;BME280;1937;51.444;6.484;2022-12-07T07:27:08;73563.22;;;2.94;100.00
3844;BME280;1937;51.444;6.484;2022-12-07T07:29:37;73582.28;;;3.09;100.00
3844;BME280;1937;51.444;6.484;2022-12-07T07:32:07;73455.56;;;3.04;100.00
3844;BME280;1937;51.444;6.484;2022-12-07T07:34:36;73311.72;;;2.97;100.00
3844;BME280;1937;51.444;6.484;2022-12-07T07:37:04;73414.22;;;2.95;100.00
3844;BME280;1937;51.444;6.484;2022-12-07T07:39:33;73412.34;;;2.87;100.00
3844;BME280;1937;51.444;6.484;2022-12-07T07:42:01;73446.69;;;2.95;100.00
3844;BME280;1937;51.444;6.484;2022-12-07T07:44:30;73318.81;;;2.80;100.00
3844;BME280;1937;51.444;6.484;2022-12-07T07:47:00;73337.91;;;2.77;100.00
3844;BME280;1937;51.444;6.484;2022-12-07T07:49:28;73436.56;;;2.74;100.00
3844;BME280;1937;51.444;6.484;2022-12-07T07:51:56;73454.41;;;2.68;100.00
3844;BME280;1937;51.444;6.484;2022-12-07T07:54:25;73717.22;;;2.59;100.00
3844;BME280;1937;51.444;6.484;2022-12-07T07:56:53;73819.09;;;2.83;100.00
3844;BME280;1937;51.444;6.484;2022-12-07T07:59:21;73854.75;;;2.89;100.00
3844;BME280;1937;51.444;6.484;2022-12-07T08:01:50;73727.44;;;2.81;100.00
3844;BME280;1937;51.444;6.484;2022-12-07T08:04:19;73759.25;;;2.80;100.00
3844;BME280;1937;51.444;6.484;2022-12-07T08:06:48;73877.06;;;2.86;100.00
3844;BME280;1937;51.444;6.484;2022-12-07T08:09:16;74066.06;;;2.77;100.00
3844;BME280;1937;51.444;6.484;2022-12-07T08:11:44;74264.34;;;3.09;100.00
3844;BME280;1937;51.444;6.484;2022-12-07T08:14:14;74096.84;;;3.05;100.00
3844;BME280;1937;51.444;6.484;2022-12-07T08:16:42;73960.47;;;2.92;100.00
3844;BME280;1937;51.444;6.484;2022-12-07T08:19:10;74563.00;;;3.03;100.00
3844;BME280;1937;51.444;6.484;2022-12-07T08:21:40;74683.81;;;3.30;100.00
3844;BME280;1937;51.444;6.484;2022-12-07T08:24:09;74781.50;;;3.41;100.00
3844;BME280;1937;51.444;6.484;2022-12-07T08:26:37;74883.28;;;3.64;100.00
3844;BME280;1937;51.444;6.484;2022-12-07T08:29:06;74667.03;;;3.57;100.00
3844;BME280;1937;51.444;6.484;2022-12-07T08:31:34;74924.09;;;3.64;100.00
3844;BME280;1937;51.444;6.484;2022-12-07T08:34:03;75049.44;;;3.83;100.00
3844;BME280;1937;51.444;6.484;2022-12-07T08:36:32;75165.47;;;4.09;100.00
3844;BME280;1937;51.444;6.484;2022-12-07T08:39:01;74889.34;;;4.21;100.00
3844;BME280;1937;51.444;6.484;2022-12-07T08:41:30;74661.66;;;4.33;100.00
3844;BME280;1937;51.444;6.484;2022-12-07T08:43:59;74075.09;;;4.25;100.00
3844;BME280;1937;51.444;6.484;2022-12-07T08:46:30;73645.13;;;4.06;100.00
3844;BME280;1937;51.444;6.484;2022-12-07T08:49:05;73637.47;;;4.04;100.00
3844;BME280;1937;51.444;6.484;2022-12-07T08:51:37;73745.22;;;4.23;100.00
3844;BME280;1937;51.444;6.484;2022-12-07T08:54:12;73801.31;;;4.45;100.00
3844;BME280;1937;51.444;6.484;2022-12-07T08:56:42;73204.78;;;4.29;100.00
3844;BME280;1937;51.444;6.484;2022-12-07T08:59:11;73023.63;;;4.27;100.00
3844;BME280;1937;51.444;6.484;2022-12-07T09:01:42;73098.09;;;4.40;100.00
3844;BME280;1937;51.444;6.484;2022-12-07T09:04:10;73085.72;;;4.59;100.00
3844;BME280;1937;51.444;6.484;2022-12-07T09:06:41;72836.06;;;4.63;100.00
3844;BME280;1937;51.444;6.484;2022-12-07T09:09:12;72981.69;;;4.96;100.00
3844;BME280;1937;51.444;6.484;2022-12-07T09:11:42;72904.91;;;5.04;100.00
3844;BME280;1937;51.444;6.484;2022-12-07T09:14:12;72452.69;;;5.06;100.00
3844;BME280;1937;51.444;6.484;2022-12-07T09:16:42;72289.47;;;5.19;100.00
3844;BME280;1937;51.444;6.484;2022-12-07T09:19:11;71813.53;;;4.87;100.00
3844;BME280;1937;51.444;6.484;2022-12-07T09:21:40;71645.41;;;4.77;100.00
3844;BME280;1937;51.444;6.484;2022-12-07T09:24:09;71522.09;;;4.80;100.00
3844;BME280;1937;51.444;6.484;2022-12-07T09:26:40;71695.63;;;5.16;100.00
3844;BME280;1937;51.444;6.484;2022-12-07T09:29:08;71484.97;;;4.98;100.00
3844;BME280;1937;51.444;6.484;2022-12-07T09:31:38;71539.25;;;5.45;100.00
3844;BME280;1937;51.444;6.484;2022-12-07T09:34:06;71277.00;;;5.52;100.00
3844;BME280;1937;51.444;6.484;2022-12-07T09:36:35;71164.84;;;5.46;100.00
3844;BME280;1937;51.444;6.484;2022-12-07T09:39:04;71177.47;;;5.75;100.00
3844;BME280;1937;51.444;6.484;2022-12-07T09:41:34;70948.72;;;5.87;99.96
3844;BME280;1937;51.444;6.484;2022-12-07T09:44:09;70698.44;;;5.93;99.21
3844;BME280;1937;51.444;6.484;2022-12-07T09:46:41;70386.50;;;5.72;99.75
3844;BME280;1937;51.444;6.484;2022-12-07T09:49:14;70445.19;;;5.85;99.51
3844;BME280;1937;51.444;6.484;2022-12-07T09:51:44;70347.91;;;5.97;99.02
3844;BME280;1937;51.444;6.484;2022-12-07T09:54:15;70380.25;;;6.22;98.61
3844;BME280;1937;51.444;6.484;2022-12-07T09:56:44;70243.00;;;6.38;97.49
3844;BME280;1937;51.444;6.484;2022-12-07T09:59:17;69843.25;;;6.11;96.36
3844;BME280;1937;51.444;6.484;2022-12-07T10:01:48;69649.38;;;5.97;96.53
3844;BME280;1937;51.444;6.484;2022-12-07T10:04:19;69568.31;;;5.78;97.29
3844;BME280;1937;51.444;6.484;2022-12-07T10:06:49;69769.53;;;5.97;97.43
3844;BME280;1937;51.444;6.484;2022-12-07T10:09:20;69714.81;;;6.20;96.52
3844;BME280;1937;51.444;6.484;2022-12-07T10:12:08;69491.78;;;6.10;95.48
3844;BME280;1937;51.444;6.484;2022-12-07T10:14:53;69506.94;;;6.21;95.93
3844;BME280;1937;51.444;6.484;2022-12-07T10:17:41;69385.78;;;6.01;96.51
3844;BME280;1937;51.444;6.484;2022-12-07T10:20:16;69467.69;;;6.07;96.10
3844;BME280;1937;51.444;6.484;2022-12-07T10:23:00;69536.25;;;6.22;96.14
3844;BME280;1937;51.444;6.484;2022-12-07T10:25:31;69535.91;;;6.43;95.13
3844;BME280;1937;51.444;6.484;2022-12-07T10:28:11;69334.91;;;6.38;94.49
3844;BME280;1937;51.444;6.484;2022-12-07T10:30:55;69351.06;;;6.51;94.98
3844;BME280;1937;51.444;6.484;2022-12-07T10:33:33;69494.69;;;7.12;93.47
3844;BME280;1937;51.444;6.484;2022-12-07T10:36:15;69270.94;;;7.16;92.09
3844;BME280;1937;51.444;6.484;2022-12-07T10:38:47;69061.13;;;7.14;91.28
3844;BME280;1937;51.444;6.484;2022-12-07T10:41:16;68943.88;;;6.86;91.29
3844;BME280;1937;51.444;6.484;2022-12-07T10:43:50;68844.50;;;6.67;91.46
3844;BME280;1937;51.444;6.484;2022-12-07T10:49:26;69056.69;;;6.69;94.26
3844;BME280;1937;51.444;6.484;2022-12-07T10:52:03;69148.47;;;7.03;93.23
3844;BME280;1937;51.444;6.484;2022-12-07T10:54:39;69074.97;;;7.17;92.35
3844;BME280;1937;51.444;6.484;2022-12-07T10:57:21;68824.69;;;6.74;92.09
3844;BME280;1937;51.444;6.484;2022-12-07T10:59:59;68815.25;;;6.50;93.27
3844;BME280;1937;51.444;6.484;2022-12-07T11:02:40;68879.44;;;6.33;94.45
3844;BME280;1937;51.444;6.484;2022-12-07T11:05:17;69042.50;;;6.48;94.47
3844;BME280;1937;51.444;6.484;2022-12-07T11:07:55;68908.78;;;6.19;94.48
3844;BME280;1937;51.444;6.484;2022-12-07T11:10:34;69073.25;;;6.39;95.29
3844;BME280;1937;51.444;6.484;2022-12-07T11:13:20;69146.31;;;6.60;95.34
3844;BME280;1937;51.444;6.484;2022-12-07T11:16:00;69117.25;;;6.79;93.96
3844;BME280;1937;51.444;6.484;2022-12-07T11:18:38;69172.75;;;7.26;92.70
3844;BME280;1937;51.444;6.484;2022-12-07T11:21:15;69091.13;;;7.37;92.75
3844;BME280;1937;51.444;6.484;2022-12-07T11:23:52;69046.75;;;7.54;91.62
3844;BME280;1937;51.444;6.484;2022-12-07T11:26:41;68799.44;;;7.26;90.11
3844;BME280;1937;51.444;6.484;2022-12-07T11:29:21;68611.38;;;6.90;90.19
3844;BME280;1937;51.444;6.484;2022-12-07T11:32:01;68699.94;;;6.81;91.85
3844;BME280;1937;51.444;6.484;2022-12-07T11:34:37;68803.75;;;6.93;92.31
3844;BME280;1937;51.444;6.484;2022-12-07T11:37:10;68857.91;;;6.95;92.72
3844;BME280;1937;51.444;6.484;2022-12-07T11:39:44;68888.13;;;7.30;91.70
3844;BME280;1937;51.444;6.484;2022-12-07T11:42:19;68840.56;;;7.46;90.70
3844;BME280;1937;51.444;6.484;2022-12-07T11:44:52;68780.44;;;7.45;90.35
3844;BME280;1937;51.444;6.484;2022-12-07T11:47:25;68885.38;;;7.60;91.28
3844;BME280;1937;51.444;6.484;2022-12-07T11:50:05;68814.22;;;7.61;90.36
3844;BME280;1937;51.444;6.484;2022-12-07T11:52:44;68738.56;;;7.68;89.47
3844;BME280;1937;51.444;6.484;2022-12-07T11:55:21;68580.00;;;7.38;90.02
3844;BME280;1937;51.444;6.484;2022-12-07T11:57:56;68567.31;;;7.03;90.64
3844;BME280;1937;51.444;6.484;2022-12-07T12:00:26;68648.84;;;7.01;92.06
3844;BME280;1937;51.444;6.484;2022-12-07T12:02:59;68698.88;;;7.06;92.01
3844;BME280;1937;51.444;6.484;2022-12-07T12:05:32;68788.81;;;7.30;91.75
3844;BME280;1937;51.444;6.484;2022-12-07T12:08:09;68806.88;;;7.50;90.60
3844;BME280;1937;51.444;6.484;2022-12-07T12:10:49;68663.09;;;7.19;91.35
3844;BME280;1937;51.444;6.484;2022-12-07T12:13:28;68747.88;;;7.37;91.05
3844;BME280;1937;51.444;6.484;2022-12-07T12:16:21;68700.22;;;7.40;90.21
3844;BME280;1937;51.444;6.484;2022-12-07T12:19:03;68700.41;;;7.38;90.86
3844;BME280;1937;51.444;6.484;2022-12-07T12:21:40;68791.47;;;7.44;89.75
3844;BME280;1937;51.444;6.484;2022-12-07T12:24:14;68686.28;;;7.52;89.93
3844;BME280;1937;51.444;6.484;2022-12-07T12:26:51;68716.25;;;7.60;89.71
3844;BME280;1937;51.444;6.484;2022-12-07T12:29:23;68629.69;;;7.41;90.77
3844;BME280;1937;51.444;6.484;2022-12-07T12:32:12;68623.31;;;7.27;90.77
3844;BME280;1937;51.444;6.484;2022-12-07T12:34:57;68630.22;;;7.22;92.02
3844;BME280;1937;51.444;6.484;2022-12-07T12:37:45;68762.34;;;7.54;90.87
3844;BME280;1937;51.444;6.484;2022-12-07T12:40:40;68762.44;;;7.73;90.53
3844;BME280;1937;51.444;6.484;2022-12-07T12:43:40;68707.81;;;7.68;89.68
3844;BME280;1937;51.444;6.484;2022-12-07T12:49:35;68525.84;;;7.49;88.26
3844;BME280;1937;51.444;6.484;2022-12-07T12:55:18;68473.44;;;7.28;90.22
3844;BME280;1937;51.444;6.484;2022-12-07T12:57:50;68528.22;;;7.51;88.23
3844;BME280;1937;51.444;6.484;2022-12-07T13:00:39;68427.34;;;7.28;88.77
3844;BME280;1937;51.444;6.484;2022-12-07T13:03:21;68452.16;;;7.29;89.23
3844;BME280;1937;51.444;6.484;2022-12-07T13:06:18;68381.44;;;7.13;88.80
3844;BME280;1937;51.444;6.484;2022-12-07T13:08:48;68346.22;;;7.07;88.33
3844;BME280;1937;51.444;6.484;2022-12-07T13:11:27;68398.75;;;7.58;87.80
3844;BME280;1937;51.444;6.484;2022-12-07T13:16:58;68421.00;;;7.66;87.91
3844;BME280;1937;51.444;6.484;2022-12-07T13:19:58;68362.09;;;7.60;86.90
3844;BME280;1937;51.444;6.484;2022-12-07T13:22:43;68279.59;;;7.20;87.65
3844;BME280;1937;51.444;6.484;2022-12-07T13:25:18;68404.06;;;7.56;87.78
3844;BME280;1937;51.444;6.484;2022-12-07T13:27:54;68339.97;;;7.76;87.09
3844;BME280;1937;51.444;6.484;2022-12-07T13:30:24;68313.38;;;7.66;86.79
3844;BME280;1937;51.444;6.484;2022-12-07T13:32:55;68185.63;;;7.31;86.84
3844;BME280;1937;51.444;6.484;2022-12-07T13:35:37;68227.41;;;7.23;88.04
3844;BME280;1937;51.444;6.484;2022-12-07T13:38:15;68257.94;;;7.19;88.14
3844;BME280;1937;51.444;6.484;2022-12-07T13:41:10;68309.50;;;7.48;87.18
3844;BME280;1937;51.444;6.484;2022-12-07T13:43:44;68297.91;;;7.35;88.78
3844;BME280;1937;51.444;6.484;2022-12-07T13:46:14;68313.72;;;7.05;89.54
3844;BME280;1937;51.444;6.484;2022-12-07T13:48:46;68310.94;;;7.20;88.22
3844;BME280;1937;51.444;6.484;2022-12-07T13:51:20;68256.66;;;6.80;90.00
3844;BME280;1937;51.444;6.484;2022-12-07T13:53:51;68281.25;;;6.84;90.16
3844;BME280;1937;51.444;6.484;2022-12-07T13:56:27;68326.53;;;6.79;91.16
3844;BME280;1937;51.444;6.484;2022-12-07T13:58:58;68313.72;;;6.66;90.90
3844;BME280;1937;51.444;6.484;2022-12-07T14:01:28;68344.84;;;6.81;90.00
3844;BME280;1937;51.444;6.484;2022-12-07T14:04:19;68305.47;;;6.78;90.12
3844;BME280;1937;51.444;6.484;2022-12-07T14:06:58;68312.75;;;6.69;90.56